sensor_id;sensor_type;location;lat;lon;timestamp;pressure;altitude;pressure_sealevel;temperature;humidity
7182;BME280;3632;42.724;23.298;2023-01-16T00:33:52;95304.19;;;2.73;94.36
7182;BME280;3632;42.724;23.298;2023-01-16T01:02:51;95254.84;;;1.80;95.64
7182;BME280;3632;42.724;23.298;2023-01-16T01:40:27;95123.59;;;1.40;97.32
7182;BME280;3632;42.724;23.298;2023-01-16T02:17:26;95244.59;;;2.74;90.30
7182;BME280;3632;42.724;23.298;2023-01-16T02:20:46;95311.19;;;2.50;91.38
7182;BME280;3632;42.724;23.298;2023-01-16T02:24:11;94790.28;;;-0.89;91.88
7182;BME280;3632;42.724;23.298;2023-01-16T03:21:33;95099.78;;;0.92;90.58
7182;BME280;3632;42.724;23.298;2023-01-16T03:24:31;95063.63;;;0.59;91.52
7182;BME280;3632;42.724;23.298;2023-01-16T03:30:10;94776.72;;;-1.45;97.00
7182;BME280;3632;42.724;23.298;2023-01-16T03:32:53;95043.63;;;1.13;96.16
7182;BME280;3632;42.724;23.298;2023-01-16T03:49:01;94888.16;;;-0.18;93.77
7182;BME280;3632;42.724;23.298;2023-01-16T04:00:55;94587.34;;;-1.97;92.97
7182;BME280;3632;42.724;23.298;2023-01-16T04:23:56;95130.53;;;2.41;92.06
7182;BME280;3632;42.724;23.298;2023-01-16T04:34:25;94859.56;;;0.61;91.31
7182;BME280;3632;42.724;23.298;2023-01-16T04:42:45;95113.19;;;2.00;92.43
7182;BME280;3632;42.724;23.298;2023-01-16T04:45:27;94805.72;;;0.15;92.00
7182;BME280;3632;42.724;23.298;2023-01-16T04:48:43;94977.34;;;1.17;92.75
7182;BME280;3632;42.724;23.298;2023-01-16T05:02:08;94866.84;;;0.11;93.68
7182;BME280;3632;42.724;23.298;2023-01-16T05:10:17;94928.31;;;1.27;99.91
7182;BME280;3632;42.724;23.298;2023-01-16T05:21:35;95044.00;;;1.76;100.00
7182;BME280;3632;42.724;23.298;2023-01-16T05:24:30;94803.75;;;0.03;100.00
7182;BME280;3632;42.724;23.298;2023-01-16T06:55:35;95035.53;;;3.26;100.00
7182;BME280;3632;42.724;23.298;2023-01-16T07:15:35;94881.22;;;1.82;100.00
7182;BME280;3632;42.724;23.298;2023-01-16T07:18:24;94975.16;;;2.13;100.00
7182;BME280;3632;42.724;23.298;2023-01-16T07:21:12;94635.13;;;0.20;100.00
7182;BME280;3632;42.724;23.298;2023-01-16T07:24:05;94912.25;;;2.14;100.00
7182;BME280;3632;42.724;23.298;2023-01-16T07:29:32;94611.75;;;-0.15;100.00
7182;BME280;3632;42.724;23.298;2023-01-16T07:32:13;94812.53;;;0.83;100.00
7182;BME280;3632;42.724;23.298;2023-01-16T07:34:47;94899.28;;;2.06;100.00
7182;BME280;3632;42.724;23.298;2023-01-16T07:37:40;94604.41;;;-0.18;100.00
7182;BME280;3632;42.724;23.298;2023-01-16T07:40:19;94463.16;;;-0.49;100.00
7182;BME280;3632;42.724;23.298;2023-01-16T07:42:59;94836.09;;;1.81;100.00
7182;BME280;3632;42.724;23.298;2023-01-16T07:45:33;94837.41;;;1.55;100.00
7182;BME280;3632;42.724;23.298;2023-01-16T07:48:11;94920.81;;;1.95;100.00
7182;BME280;3632;42.724;23.298;2023-01-16T07:50:52;94630.31;;;0.50;100.00
7182;BME280;3632;42.724;23.298;2023-01-16T07:53:25;94883.25;;;2.40;100.00
7182;BME280;3632;42.724;23.298;2023-01-16T07:56:01;94880.69;;;1.93;100.00
7182;BME280;3632;42.724;23.298;2023-01-16T07:58:30;94616.53;;;0.24;100.00
7182;BME280;3632;42.724;23.298;2023-01-16T08:00:59;94921.38;;;2.48;100.00
7182;BME280;3632;42.724;23.298;2023-01-16T08:03:36;94907.44;;;2.74;100.00
7182;BME280;3632;42.724;23.298;2023-01-16T08:06:09;94557.63;;;0.65;100.00
7182;BME280;3632;42.724;23.298;2023-01-16T08:08:43;94753.69;;;2.49;100.00
7182;BME280;3632;42.724;23.298;2023-01-16T08:11:12;94993.81;;;3.81;100.00
7182;BME280;3632;42.724;23.298;2023-01-16T08:13:58;95046.31;;;3.59;100.00
7182;BME280;3632;42.724;23.298;2023-01-16T08:16:27;94631.06;;;1.00;100.00
7182;BME280;3632;42.724;23.298;2023-01-16T08:22:08;94710.41;;;1.98;100.00
7182;BME280;3632;42.724;23.298;2023-01-16T08:27:15;94831.75;;;2.93;100.00
7182;BME280;3632;42.724;23.298;2023-01-16T08:32:24;94750.44;;;2.76;100.00
7182;BME280;3632;42.724;23.298;2023-01-16T08:35:00;94759.16;;;2.71;100.00
7182;BME280;3632;42.724;23.298;2023-01-16T08:40:11;94940.72;;;4.55;100.00
7182;BME280;3632;42.724;23.298;2023-01-16T08:42:43;94973.03;;;4.77;99.65
7182;BME280;3632;42.724;23.298;2023-01-16T08:48:24;94972.78;;;4.81;97.76
7182;BME280;3632;42.724;23.298;2023-01-16T09:11:05;94660.75;;;3.32;93.04
7182;BME280;3632;42.724;23.298;2023-01-16T09:13:49;94939.78;;;5.38;93.17
7182;BME280;3632;42.724;23.298;2023-01-16T09:16:17;94866.44;;;5.13;90.95
7182;BME280;3632;42.724;23.298;2023-01-16T09:18:44;94936.25;;;5.92;89.05
7182;BME280;3632;42.724;23.298;2023-01-16T09:21:12;94933.00;;;6.16;87.41
7182;BME280;3632;42.724;23.298;2023-01-16T09:23:38;94923.19;;;6.36;85.41
7182;BME280;3632;42.724;23.298;2023-01-16T09:26:07;94913.44;;;6.56;83.72
7182;BME280;3632;42.724;23.298;2023-01-16T09:28:34;94876.47;;;6.53;83.50
7182;BME280;3632;42.724;23.298;2023-01-16T09:31:01;94918.75;;;6.76;81.85
7182;BME280;3632;42.724;23.298;2023-01-16T09:33:28;94908.34;;;6.68;83.20
7182;BME280;3632;42.724;23.298;2023-01-16T09:35:55;94907.25;;;6.83;82.85
7182;BME280;3632;42.724;23.298;2023-01-16T09:38:21;94891.91;;;6.98;83.27
7182;BME280;3632;42.724;23.298;2023-01-16T09:40:52;94902.00;;;7.34;81.89
7182;BME280;3632;42.724;23.298;2023-01-16T09:43:43;94891.00;;;7.68;79.20
7182;BME280;3632;42.724;23.298;2023-01-16T09:46:13;94892.31;;;7.74;77.07
7182;BME280;3632;42.724;23.298;2023-01-16T09:48:46;94884.34;;;7.67;78.53
7182;BME280;3632;42.724;23.298;2023-01-16T09:51:16;94881.34;;;7.73;77.26
7182;BME280;3632;42.724;23.298;2023-01-16T09:53:50;94791.81;;;7.16;77.34
7182;BME280;3632;42.724;23.298;2023-01-16T09:56:39;94857.31;;;7.44;79.76
7182;BME280;3632;42.724;23.298;2023-01-16T09:59:29;94791.72;;;6.94;80.09
7182;BME280;3632;42.724;23.298;2023-01-16T10:02:05;94864.22;;;7.42;81.51
7182;BME280;3632;42.724;23.298;2023-01-16T10:04:34;94665.59;;;6.05;81.23
7182;BME280;3632;42.724;23.298;2023-01-16T10:09:56;94681.91;;;5.52;81.55
7182;BME280;3632;42.724;23.298;2023-01-16T10:12:31;94647.69;;;5.72;82.35
7182;BME280;3632;42.724;23.298;2023-01-16T10:15:11;94838.22;;;6.93;83.93
7182;BME280;3632;42.724;23.298;2023-01-16T10:17:48;94658.81;;;5.69;83.78
7182;BME280;3632;42.724;23.298;2023-01-16T10:20:29;94824.03;;;7.14;83.82
7182;BME280;3632;42.724;23.298;2023-01-16T10:23:11;94788.69;;;6.88;82.43
7182;BME280;3632;42.724;23.298;2023-01-16T10:25:46;94582.78;;;5.72;83.03
7182;BME280;3632;42.724;23.298;2023-01-16T10:28:28;94800.13;;;7.29;82.74
7182;BME280;3632;42.724;23.298;2023-01-16T10:31:08;94799.47;;;7.49;82.45
7182;BME280;3632;42.724;23.298;2023-01-16T10:33:42;94738.25;;;6.74;82.73
7182;BME280;3632;42.724;23.298;2023-01-16T10:36:12;94687.59;;;6.74;80.97
7182;BME280;3632;42.724;23.298;2023-01-16T10:38:44;94792.56;;;8.07;79.64
7182;BME280;3632;42.724;23.298;2023-01-16T10:41:14;94794.84;;;8.54;89.41
7182;BME280;3632;42.724;23.298;2023-01-16T10:43:57;94766.53;;;8.59;80.34
7182;BME280;3632;42.724;23.298;2023-01-16T10:46:43;94741.47;;;8.65;79.08
7182;BME280;3632;42.724;23.298;2023-01-16T10:49:28;94749.16;;;8.75;79.39
7182;BME280;3632;42.724;23.298;2023-01-16T10:51:58;94752.50;;;8.76;77.41
7182;BME280;3632;42.724;23.298;2023-01-16T10:54:27;94760.78;;;8.57;77.51
7182;BME280;3632;42.724;23.298;2023-01-16T10:56:53;94732.63;;;8.81;78.10
7182;BME280;3632;42.724;23.298;2023-01-16T10:59:23;94728.38;;;8.70;76.68
7182;BME280;3632;42.724;23.298;2023-01-16T11:01:53;94729.72;;;9.06;75.23
7182;BME280;3632;42.724;23.298;2023-01-16T11:04:33;94708.47;;;9.07;74.86
7182;BME280;3632;42.724;23.298;2023-01-16T11:07:13;94673.94;;;8.84;75.65
7182;BME280;3632;42.724;23.298;2023-01-16T11:09:42;94694.88;;;8.97;76.38
7182;BME280;3632;42.724;23.298;2023-01-16T11:12:12;94703.59;;;9.55;73.79
7182;BME280;3632;42.724;23.298;2023-01-16T11:14:59;94705.88;;;10.57;75.40
7182;BME280;3632;42.724;23.298;2023-01-16T11:17:51;94713.59;;;12.06;70.45
7182;BME280;3632;42.724;23.298;2023-01-16T11:20:36;94686.75;;;13.26;62.36
7182;BME280;3632;42.724;23.298;2023-01-16T11:23:14;94685.94;;;13.85;58.43
7182;BME280;3632;42.724;23.298;2023-01-16T11:25:43;94687.88;;;12.88;58.19
7182;BME280;3632;42.724;23.298;2023-01-16T11:28:15;94693.50;;;12.92;59.66
7182;BME280;3632;42.724;23.298;2023-01-16T11:30:45;94697.75;;;13.78;56.61
7182;BME280;3632;42.724;23.298;2023-01-16T11:33:16;94595.72;;;14.96;54.49
7182;BME280;3632;42.724;23.298;2023-01-16T11:35:50;94664.75;;;16.86;49.40
7182;BME280;3632;42.724;23.298;2023-01-16T11:38:18;94632.78;;;17.18;46.21
7182;BME280;3632;42.724;23.298;2023-01-16T11:40:47;94665.09;;;17.58;45.91
7182;BME280;3632;42.724;23.298;2023-01-16T11:43:17;94665.78;;;17.96;45.17
7182;BME280;3632;42.724;23.298;2023-01-16T11:46:06;94605.34;;;16.73;46.40
7182;BME280;3632;42.724;23.298;2023-01-16T11:48:42;94632.00;;;16.04;47.89
7182;BME280;3632;42.724;23.298;2023-01-16T11:51:14;94637.06;;;15.26;50.17
7182;BME280;3632;42.724;23.298;2023-01-16T11:53:43;94628.09;;;15.14;51.14
7182;BME280;3632;42.724;23.298;2023-01-16T11:56:30;94630.53;;;14.83;51.10
7182;BME280;3632;42.724;23.298;2023-01-16T11:59:12;94618.34;;;13.78;51.83
7182;BME280;3632;42.724;23.298;2023-01-16T12:01:51;94618.75;;;14.07;67.98
7182;BME280;3632;42.724;23.298;2023-01-16T12:04:43;94549.72;;;13.32;54.70
7182;BME280;3632;42.724;23.298;2023-01-16T12:07:40;94529.25;;;13.32;55.43
7182;BME280;3632;42.724;23.298;2023-01-16T12:10:22;94606.34;;;14.53;53.19
7182;BME280;3632;42.724;23.298;2023-01-16T12:12:56;94603.06;;;14.27;52.58
7182;BME280;3632;42.724;23.298;2023-01-16T12:15:50;94596.06;;;12.77;55.42
7182;BME280;3632;42.724;23.298;2023-01-16T12:18:28;94593.38;;;12.61;57.58
7182;BME280;3632;42.724;23.298;2023-01-16T12:21:02;94585.75;;;11.90;59.41
7182;BME280;3632;42.724;23.298;2023-01-16T12:23:43;94603.31;;;11.11;62.22
7182;BME280;3632;42.724;23.298;2023-01-16T12:26:19;94460.31;;;9.15;63.64
7182;BME280;3632;42.724;23.298;2023-01-16T12:28:58;94583.41;;;10.78;65.58
7182;BME280;3632;42.724;23.298;2023-01-16T12:31:35;94577.94;;;10.63;67.15
7182;BME280;3632;42.724;23.298;2023-01-16T12:34:29;94573.59;;;10.83;65.84
7182;BME280;3632;42.724;23.298;2023-01-16T12:37:12;94589.47;;;10.58;66.79
7182;BME280;3632;42.724;23.298;2023-01-16T12:39:49;94538.06;;;10.25;65.82
7182;BME280;3632;42.724;23.298;2023-01-16T12:42:28;94574.22;;;10.00;66.88
7182;BME280;3632;42.724;23.298;2023-01-16T12:45:28;94569.22;;;9.50;68.81
7182;BME280;3632;42.724;23.298;2023-01-16T12:48:12;94565.72;;;9.61;69.71
7182;BME280;3632;42.724;23.298;2023-01-16T12:50:53;94552.97;;;9.51;70.04
7182;BME280;3632;42.724;23.298;2023-01-16T12:53:41;94566.19;;;8.96;69.04
7182;BME280;3632;42.724;23.298;2023-01-16T12:56:23;94531.50;;;8.55;70.54
7182;BME280;3632;42.724;23.298;2023-01-16T12:58:55;94558.75;;;8.74;70.43
7182;BME280;3632;42.724;23.298;2023-01-16T13:01:28;94567.03;;;8.76;71.54
7182;BME280;3632;42.724;23.298;2023-01-16T13:04:00;94550.56;;;8.70;71.78
7182;BME280;3632;42.724;23.298;2023-01-16T13:06:35;94445.84;;;7.85;71.63
7182;BME280;3632;42.724;23.298;2023-01-16T13:09:11;94541.72;;;8.64;72.38
7182;BME280;3632;42.724;23.298;2023-01-16T13:11:52;94491.63;;;8.04;72.17
7182;BME280;3632;42.724;23.298;2023-01-16T13:14:39;94523.22;;;8.32;72.52
7182;BME280;3632;42.724;23.298;2023-01-16T13:17:11;94291.84;;;6.52;74.09
7182;BME280;3632;42.724;23.298;2023-01-16T13:19:40;94423.25;;;7.61;74.46
7182;BME280;3632;42.724;23.298;2023-01-16T13:22:19;94471.78;;;7.89;74.91
7182;BME280;3632;42.724;23.298;2023-01-16T13:24:54;94403.63;;;7.43;76.13
7182;BME280;3632;42.724;23.298;2023-01-16T13:27:30;94515.47;;;8.13;77.11
7182;BME280;3632;42.724;23.298;2023-01-16T13:30:03;94509.88;;;8.19;76.46
7182;BME280;3632;42.724;23.298;2023-01-16T13:32:33;94521.44;;;8.23;77.05
7182;BME280;3632;42.724;23.298;2023-01-16T13:35:04;94519.22;;;8.30;76.58
7182;BME280;3632;42.724;23.298;2023-01-16T13:37:46;94513.41;;;8.27;76.20
7182;BME280;3632;42.724;23.298;2023-01-16T13:43:08;94525.09;;;8.30;75.04
7182;BME280;3632;42.724;23.298;2023-01-16T13:45:54;94449.88;;;7.88;76.14
7182;BME280;3632;42.724;23.298;2023-01-16T13:48:27;94445.53;;;7.78;75.87
7182;BME280;3632;42.724;23.298;2023-01-16T13:50:58;94464.16;;;7.89;76.75
7182;BME280;3632;42.724;23.298;2023-01-16T13:53:25;94493.25;;;8.05;76.54
7182;BME280;3632;42.724;23.298;2023-01-16T13:56:04;94497.19;;;7.98;76.43
7182;BME280;3632;42.724;23.298;2023-01-16T13:58:32;94450.53;;;7.69;77.93
7182;BME280;3632;42.724;23.298;2023-01-16T14:01:04;94420.06;;;7.27;76.81
7182;BME280;3632;42.724;23.298;2023-01-16T14:03:33;94493.25;;;7.85;77.54
7182;BME280;3632;42.724;23.298;2023-01-16T14:06:20;94495.91;;;7.83;77.85
7182;BME280;3632;42.724;23.298;2023-01-16T14:08:49;94419.22;;;7.06;78.37
7182;BME280;3632;42.724;23.298;2023-01-16T14:11:56;94412.22;;;6.87;78.98
7182;BME280;3632;42.724;23.298;2023-01-16T14:14:32;94492.09;;;7.57;80.12
7182;BME280;3632;42.724;23.298;2023-01-16T14:17:18;94489.69;;;7.55;80.77
7182;BME280;3632;42.724;23.298;2023-01-16T14:19:57;94494.16;;;7.63;80.07
7182;BME280;3632;42.724;23.298;2023-01-16T14:22:26;94481.91;;;7.36;79.17
7182;BME280;3632;42.724;23.298;2023-01-16T14:25:20;94484.44;;;7.36;80.64
7182;BME280;3632;42.724;23.298;2023-01-16T14:27:55;94499.19;;;7.42;80.27
7182;BME280;3632;42.724;23.298;2023-01-16T14:30:24;94496.44;;;7.34;80.49
7182;BME280;3632;42.724;23.298;2023-01-16T14:32:54;94504.25;;;7.31;80.29
7182;BME280;3632;42.724;23.298;2023-01-16T14:35:25;94499.69;;;7.25;81.31
7182;BME280;3632;42.724;23.298;2023-01-16T14:37:57;94488.38;;;7.29;81.84
7182;BME280;3632;42.724;23.298;2023-01-16T14:40:27;94337.34;;;6.31;81.38
7182;BME280;3632;42.724;23.298;2023-01-16T14:43:14;94469.06;;;7.17;81.25
7182;BME280;3632;42.724;23.298;2023-01-16T14:46:30;94476.56;;;7.07;81.95
7182;BME280;3632;42.724;23.298;2023-01-16T14:49:57;94158.31;;;4.69;82.75
7182;BME280;3632;42.724;23.298;2023-01-16T14:52:48;94425.22;;;6.40;84.34
7182;BME280;3632;42.724;23.298;2023-01-16T14:55:43;94480.75;;;6.64;83.90
7182;BME280;3632;42.724;23.298;2023-01-16T14:58:20;94385.03;;;5.91;84.48
7182;BME280;3632;42.724;23.298;2023-01-16T15:00:50;94475.94;;;6.61;85.78
7182;BME280;3632;42.724;23.298;2023-01-16T15:03:22;94470.97;;;6.59;85.37
7182;BME280;3632;42.724;23.298;2023-01-16T15:05:54;94441.53;;;6.36;84.69
7182;BME280;3632;42.724;23.298;2023-01-16T15:08:25;94434.75;;;6.25;85.27
7182;BME280;3632;42.724;23.298;2023-01-16T15:10:54;94491.72;;;5.96;86.74
7182;BME280;3632;42.724;23.298;2023-01-16T15:13:24;94430.94;;;6.09;87.04
7182;BME280;3632;42.724;23.298;2023-01-16T15:15:54;94385.13;;;5.21;87.81
7182;BME280;3632;42.724;23.298;2023-01-16T15:18:24;94416.84;;;5.82;88.03
7182;BME280;3632;42.724;23.298;2023-01-16T15:21:12;94468.09;;;6.30;88.17
7182;BME280;3632;42.724;23.298;2023-01-16T15:23:57;94486.16;;;6.37;88.31
7182;BME280;3632;42.724;23.298;2023-01-16T15:26:46;94481.47;;;6.43;88.04
7182;BME280;3632;42.724;23.298;2023-01-16T15:29:34;94468.94;;;6.53;88.00
7182;BME280;3632;42.724;23.298;2023-01-16T15:32:07;94478.34;;;6.40;87.94
7182;BME280;3632;42.724;23.298;2023-01-16T15:34:42;94457.84;;;6.21;87.31
7182;BME280;3632;42.724;23.298;2023-01-16T15:37:19;94373.84;;;5.71;86.81
7182;BME280;3632;42.724;23.298;2023-01-16T15:39:47;94186.16;;;4.56;87.34
7182;BME280;3632;42.724;23.298;2023-01-16T15:42:17;94476.69;;;6.83;100.00
7182;BME280;3632;42.724;23.298;2023-01-16T15:45:15;94487.16;;;7.12;88.19
7182;BME280;3632;42.724;23.298;2023-01-16T15:48:21;94382.19;;;6.29;85.92
7182;BME280;3632;42.724;23.298;2023-01-16T15:50:56;94498.13;;;6.79;85.31
7182;BME280;3632;42.724;23.298;2023-01-16T15:53:29;94472.81;;;6.46;86.68
7182;BME280;3632;42.724;23.298;2023-01-16T15:56:01;94440.09;;;5.98;87.05
7182;BME280;3632;42.724;23.298;2023-01-16T15:58:29;94460.34;;;5.87;87.94
7182;BME280;3632;42.724;23.298;2023-01-16T16:01:00;94507.09;;;6.39;88.20
7182;BME280;3632;42.724;23.298;2023-01-16T16:03:29;94501.22;;;6.38;88.88
7182;BME280;3632;42.724;23.298;2023-01-16T16:06:00;94521.81;;;6.45;89.18
7182;BME280;3632;42.724;23.298;2023-01-16T16:08:32;94218.81;;;3.99;88.19
7182;BME280;3632;42.724;23.298;2023-01-16T16:11:04;94496.41;;;6.47;89.13
7182;BME280;3632;42.724;23.298;2023-01-16T16:13:49;94496.75;;;6.42;89.51
7182;BME280;3632;42.724;23.298;2023-01-16T16:16:20;94336.78;;;4.91;88.51
7182;BME280;3632;42.724;23.298;2023-01-16T16:19:05;94397.41;;;5.83;88.84
7182;BME280;3632;42.724;23.298;2023-01-16T16:21:35;94471.41;;;6.20;89.74
7182;BME280;3632;42.724;23.298;2023-01-16T16:24:24;94477.66;;;6.27;90.11
7182;BME280;3632;42.724;23.298;2023-01-16T16:26:51;94466.38;;;6.31;89.75
7182;BME280;3632;42.724;23.298;2023-01-16T16:29:19;94454.53;;;6.31;89.57
7182;BME280;3632;42.724;23.298;2023-01-16T16:31:48;94467.16;;;6.20;89.68
7182;BME280;3632;42.724;23.298;2023-01-16T16:34:18;94455.66;;;6.16;90.54
7182;BME280;3632;42.724;23.298;2023-01-16T16:36:50;94441.53;;;6.14;91.73
7182;BME280;3632;42.724;23.298;2023-01-16T16:39:34;94452.44;;;6.14;90.98
7182;BME280;3632;42.724;23.298;2023-01-16T16:42:26;94441.84;;;6.20;91.34
7182;BME280;3632;42.724;23.298;2023-01-16T16:45:12;94415.88;;;6.18;91.35
7182;BME280;3632;42.724;23.298;2023-01-16T16:47:42;94419.91;;;6.21;91.45
7182;BME280;3632;42.724;23.298;2023-01-16T16:50:29;94421.19;;;6.26;90.73
7182;BME280;3632;42.724;23.298;2023-01-16T16:53:03;94393.34;;;6.15;90.96
7182;BME280;3632;42.724;23.298;2023-01-16T16:55:32;94439.69;;;6.38;89.88
7182;BME280;3632;42.724;23.298;2023-01-16T16:58:02;94432.31;;;6.24;90.18
7182;BME280;3632;42.724;23.298;2023-01-16T17:00:31;94439.22;;;6.11;91.87
7182;BME280;3632;42.724;23.298;2023-01-16T17:03:10;94430.47;;;5.92;91.28
7182;BME280;3632;42.724;23.298;2023-01-16T17:05:39;94466.81;;;6.25;90.86
7182;BME280;3632;42.724;23.298;2023-01-16T17:08:06;94423.59;;;6.28;90.45
7182;BME280;3632;42.724;23.298;2023-01-16T17:10:34;94339.75;;;5.88;90.02
7182;BME280;3632;42.724;23.298;2023-01-16T17:13:01;94410.81;;;6.18;89.59
7182;BME280;3632;42.724;23.298;2023-01-16T17:15:28;94266.00;;;5.03;90.66
7182;BME280;3632;42.724;23.298;2023-01-16T17:17:55;94420.69;;;5.88;92.69
7182;BME280;3632;42.724;23.298;2023-01-16T17:20:25;94405.16;;;6.04;92.48
7182;BME280;3632;42.724;23.298;2023-01-16T17:22:52;94413.13;;;6.10;91.05
7182;BME280;3632;42.724;23.298;2023-01-16T17:25:20;94420.59;;;6.01;90.57
7182;BME280;3632;42.724;23.298;2023-01-16T17:27:49;94269.84;;;5.31;90.88
7182;BME280;3632;42.724;23.298;2023-01-16T17:30:17;94365.38;;;5.94;90.85
7182;BME280;3632;42.724;23.298;2023-01-16T17:32:45;94399.00;;;6.19;89.63
7182;BME280;3632;42.724;23.298;2023-01-16T17:35:15;94389.56;;;6.10;89.79
7182;BME280;3632;42.724;23.298;2023-01-16T17:37:44;94447.66;;;5.76;90.97
7182;BME280;3632;42.724;23.298;2023-01-16T17:40:11;94362.59;;;5.75;92.59
7182;BME280;3632;42.724;23.298;2023-01-16T17:42:39;94361.44;;;5.22;93.19
7182;BME280;3632;42.724;23.298;2023-01-16T17:45:32;94301.31;;;4.92;94.50
7182;BME280;3632;42.724;23.298;2023-01-16T17:48:23;94214.97;;;4.30;93.53
7182;BME280;3632;42.724;23.298;2023-01-16T17:50:51;94389.44;;;5.54;93.46
7182;BME280;3632;42.724;23.298;2023-01-16T17:53:22;94412.28;;;5.41;94.70
7182;BME280;3632;42.724;23.298;2023-01-16T17:55:51;94393.94;;;5.27;95.95
7182;BME280;3632;42.724;23.298;2023-01-16T17:58:23;94390.81;;;5.47;96.61
7182;BME280;3632;42.724;23.298;2023-01-16T18:01:01;94400.19;;;5.34;95.37
7182;BME280;3632;42.724;23.298;2023-01-16T18:03:32;94403.66;;;5.44;95.38
7182;BME280;3632;42.724;23.298;2023-01-16T18:06:00;94433.03;;;5.34;95.96
7182;BME280;3632;42.724;23.298;2023-01-16T18:08:29;94392.06;;;5.41;95.67
7182;BME280;3632;42.724;23.298;2023-01-16T18:10:58;94337.56;;;5.15;94.71
7182;BME280;3632;42.724;23.298;2023-01-16T18:13:25;94337.66;;;5.14;94.20
7182;BME280;3632;42.724;23.298;2023-01-16T18:16:13;94407.38;;;5.62;93.75
7182;BME280;3632;42.724;23.298;2023-01-16T18:18:58;94299.41;;;4.96;94.07
7182;BME280;3632;42.724;23.298;2023-01-16T18:21:26;94407.66;;;5.35;94.69
7182;BME280;3632;42.724;23.298;2023-01-16T18:24:12;94340.97;;;5.03;94.28
7182;BME280;3632;42.724;23.298;2023-01-16T18:26:40;94368.31;;;5.55;99.39
7182;BME280;3632;42.724;23.298;2023-01-16T18:29:11;94285.31;;;5.16;97.63
7182;BME280;3632;42.724;23.298;2023-01-16T18:31:39;94099.53;;;3.64;92.60
7182;BME280;3632;42.724;23.298;2023-01-16T18:34:26;94346.72;;;5.51;92.27
7182;BME280;3632;42.724;23.298;2023-01-16T18:36:53;94354.31;;;5.51;91.81
7182;BME280;3632;42.724;23.298;2023-01-16T18:39:24;94398.31;;;5.71;91.54
7182;BME280;3632;42.724;23.298;2023-01-16T18:47:57;94274.94;;;3.90;94.95
7182;BME280;3632;42.724;23.298;2023-01-16T18:50:39;94034.22;;;2.90;94.21
7182;BME280;3632;42.724;23.298;2023-01-16T18:53:27;94394.19;;;5.24;94.66
7182;BME280;3632;42.724;23.298;2023-01-16T18:56:15;94391.81;;;5.33;93.85
7182;BME280;3632;42.724;23.298;2023-01-16T19:01:48;94375.69;;;5.23;93.97
7182;BME280;3632;42.724;23.298;2023-01-16T19:04:28;94371.59;;;5.33;93.85
7182;BME280;3632;42.724;23.298;2023-01-16T19:06:57;94351.63;;;5.41;92.56
7182;BME280;3632;42.724;23.298;2023-01-16T19:09:25;94350.59;;;5.44;92.40
7182;BME280;3632;42.724;23.298;2023-01-16T19:11:58;94357.25;;;5.45;92.04
7182;BME280;3632;42.724;23.298;2023-01-16T19:14:28;94301.13;;;5.06;91.66
7182;BME280;3632;42.724;23.298;2023-01-16T19:16:56;94324.44;;;5.10;91.91
7182;BME280;3632;42.724;23.298;2023-01-16T19:19:24;94374.13;;;5.44;91.59
7182;BME280;3632;42.724;23.298;2023-01-16T19:21:57;94189.28;;;4.01;90.71
7182;BME280;3632;42.724;23.298;2023-01-16T19:24:32;94357.19;;;5.23;90.42
7182;BME280;3632;42.724;23.298;2023-01-16T19:27:03;94275.31;;;4.68;90.91
7182;BME280;3632;42.724;23.298;2023-01-16T19:29:31;94259.41;;;4.79;90.09
7182;BME280;3632;42.724;23.298;2023-01-16T19:31:58;94371.75;;;5.54;90.13
7182;BME280;3632;42.724;23.298;2023-01-16T19:34:25;94364.50;;;5.49;90.63
7182;BME280;3632;42.724;23.298;2023-01-16T19:36:56;94209.81;;;4.32;91.56
7182;BME280;3632;42.724;23.298;2023-01-16T19:39:47;94360.25;;;5.50;91.06
7182;BME280;3632;42.724;23.298;2023-01-16T19:42:15;94375.44;;;5.61;91.08
7182;BME280;3632;42.724;23.298;2023-01-16T19:45:00;94398.31;;;5.60;90.28
7182;BME280;3632;42.724;23.298;2023-01-16T19:47:44;94385.31;;;5.18;90.48
7182;BME280;3632;42.724;23.298;2023-01-16T19:50:12;94211.28;;;3.63;90.69
7182;BME280;3632;42.724;23.298;2023-01-16T19:55:10;93877.13;;;1.21;95.77
7182;BME280;3632;42.724;23.298;2023-01-16T20:03:09;94418.63;;;4.39;97.13
7182;BME280;3632;42.724;23.298;2023-01-16T20:05:44;94256.25;;;3.06;95.98
7182;BME280;3632;42.724;23.298;2023-01-16T20:08:20;94173.41;;;2.78;98.25
7182;BME280;3632;42.724;23.298;2023-01-16T20:10:51;94178.91;;;2.45;100.00
7182;BME280;3632;42.724;23.298;2023-01-16T20:16:10;94097.34;;;2.23;100.00
7182;BME280;3632;42.724;23.298;2023-01-16T20:18:39;94325.69;;;4.09;98.20
7182;BME280;3632;42.724;23.298;2023-01-16T20:21:08;94108.81;;;2.27;99.08
7182;BME280;3632;42.724;23.298;2023-01-16T20:23:37;94224.31;;;2.81;100.00
7182;BME280;3632;42.724;23.298;2023-01-16T20:26:09;93974.56;;;1.67;100.00
7182;BME280;3632;42.724;23.298;2023-01-16T20:28:36;94327.38;;;4.22;100.00
7182;BME280;3632;42.724;23.298;2023-01-16T20:33:39;94188.78;;;2.98;98.42
7182;BME280;3632;42.724;23.298;2023-01-16T20:36:26;94026.22;;;1.71;100.00
7182;BME280;3632;42.724;23.298;2023-01-16T20:47:23;94131.97;;;2.58;99.73
7182;BME280;3632;42.724;23.298;2023-01-16T20:49:52;94131.16;;;2.57;100.00
7182;BME280;3632;42.724;23.298;2023-01-16T20:52:26;94366.97;;;3.83;100.00
7182;BME280;3632;42.724;23.298;2023-01-16T20:55:22;94328.59;;;4.03;100.00
7182;BME280;3632;42.724;23.298;2023-01-16T20:57:56;94163.28;;;3.28;100.00
7182;BME280;3632;42.724;23.298;2023-01-16T21:00:34;93906.53;;;1.19;100.00
7182;BME280;3632;42.724;23.298;2023-01-16T21:03:03;94168.88;;;2.95;98.51
7182;BME280;3632;42.724;23.298;2023-01-16T21:05:31;94129.31;;;2.85;100.00
7182;BME280;3632;42.724;23.298;2023-01-16T21:08:04;93867.09;;;0.69;100.00
7182;BME280;3632;42.724;23.298;2023-01-16T21:10:52;93917.22;;;1.86;100.00
7182;BME280;3632;42.724;23.298;2023-01-16T21:13:31;94142.06;;;3.19;100.00
7182;BME280;3632;42.724;23.298;2023-01-16T21:16:22;94171.34;;;3.33;99.84
7182;BME280;3632;42.724;23.298;2023-01-16T21:19:12;93918.72;;;1.89;98.61
7182;BME280;3632;42.724;23.298;2023-01-16T21:21:58;93977.81;;;1.94;98.88
7182;BME280;3632;42.724;23.298;2023-01-16T21:24:31;94002.44;;;2.14;100.00
7182;BME280;3632;42.724;23.298;2023-01-16T21:27:01;94318.91;;;4.23;100.00
7182;BME280;3632;42.724;23.298;2023-01-16T21:29:33;94129.03;;;2.64;100.00
7182;BME280;3632;42.724;23.298;2023-01-16T21:32:03;94129.75;;;3.28;100.00
7182;BME280;3632;42.724;23.298;2023-01-16T21:34:33;94314.50;;;4.37;97.99
7182;BME280;3632;42.724;23.298;2023-01-16T21:37:01;94118.75;;;3.05;100.00